createdAt,value
2023-01-15T00:00:11.629Z,4.80
2023-01-15T00:02:41.800Z,4.70
2023-01-15T00:05:10.743Z,4.80
2023-01-15T00:07:39.311Z,4.80
2023-01-15T00:10:10.332Z,4.80
2023-01-15T00:12:39.060Z,4.80
2023-01-15T00:15:08.547Z,4.80
2023-01-15T00:17:37.172Z,4.90
2023-01-15T00:20:08.055Z,4.80
2023-01-15T00:22:36.677Z,4.80
2023-01-15T00:25:23.454Z,4.80
2023-01-15T00:27:52.073Z,4.80
2023-01-15T00:30:20.743Z,4.80
2023-01-15T00:32:49.492Z,4.80
2023-01-15T00:35:21.827Z,4.80
2023-01-15T00:37:51.296Z,4.80
2023-01-15T00:40:21.436Z,4.80
2023-01-15T00:42:50.651Z,4.80
2023-01-15T00:45:24.172Z,4.80
2023-01-15T00:47:52.973Z,4.90
2023-01-15T00:50:24.134Z,4.90
2023-01-15T00:52:52.741Z,4.90
2023-01-15T00:55:22.142Z,4.90
2023-01-15T00:57:50.754Z,4.80
2023-01-15T01:00:19.971Z,4.80
2023-01-15T01:02:48.620Z,4.80
2023-01-15T01:05:17.309Z,4.80
2023-01-15T01:07:47.274Z,4.80
2023-01-15T01:10:17.452Z,4.80
2023-01-15T01:12:46.112Z,4.80
2023-01-15T01:15:14.761Z,4.80
2023-01-15T01:17:43.998Z,4.80
2023-01-15T01:20:15.063Z,4.80
2023-01-15T01:22:43.870Z,4.80
2023-01-15T01:25:13.818Z,4.80
2023-01-15T01:27:44.954Z,4.80
2023-01-15T01:30:15.058Z,4.80
2023-01-15T01:32:46.549Z,4.80
2023-01-15T01:35:15.793Z,4.80
2023-01-15T01:37:44.433Z,4.80
2023-01-15T01:40:15.066Z,4.80
2023-01-15T01:42:43.663Z,4.80
2023-01-15T01:45:25.110Z,4.80
2023-01-15T01:47:56.244Z,4.80
2023-01-15T01:50:25.376Z,4.80
2023-01-15T01:53:05.141Z,4.80
2023-01-15T01:55:35.856Z,4.80
2023-01-15T01:58:07.561Z,4.90
2023-01-15T02:00:39.875Z,4.90
2023-01-15T02:03:10.494Z,4.90
2023-01-15T02:05:41.154Z,4.90
2023-01-15T02:08:09.815Z,4.90
2023-01-15T02:10:41.623Z,4.90
2023-01-15T02:13:20.147Z,4.90
2023-01-15T02:15:57.346Z,4.90
2023-01-15T02:18:33.181Z,4.90
2023-01-15T02:21:08.599Z,4.90
2023-01-15T02:24:03.222Z,4.90
2023-01-15T02:27:06.112Z,5.00
2023-01-15T02:29:45.152Z,4.90
2023-01-15T02:32:20.297Z,4.90
2023-01-15T02:34:54.856Z,5.00
2023-01-15T02:37:28.707Z,4.90
2023-01-15T02:40:00.559Z,5.00
2023-01-15T02:42:31.771Z,5.00
2023-01-15T02:45:05.408Z,5.00
2023-01-15T02:47:39.668Z,5.00
2023-01-15T02:50:14.328Z,5.00
2023-01-15T02:52:46.681Z,5.00
2023-01-15T02:55:23.514Z,5.00
2023-01-15T02:57:57.144Z,5.00
2023-01-15T03:00:31.921Z,5.00
2023-01-15T03:03:06.739Z,5.00
2023-01-15T03:05:41.338Z,5.00
2023-01-15T03:08:13.741Z,5.00
2023-01-15T03:10:49.572Z,5.00
2023-01-15T03:13:22.312Z,5.00
2023-01-15T03:16:20.474Z,5.00
2023-01-15T03:18:54.992Z,5.00
2023-01-15T03:21:29.158Z,5.00
2023-01-15T03:24:02.922Z,5.00
2023-01-15T03:26:31.655Z,5.00
2023-01-15T03:29:03.826Z,5.00
2023-01-15T03:31:35.306Z,5.00
2023-01-15T03:34:04.885Z,5.00
2023-01-15T03:36:33.511Z,5.00
2023-01-15T03:39:05.420Z,5.00
2023-01-15T03:42:06.804Z,5.00
2023-01-15T03:44:42.242Z,5.00
2023-01-15T03:47:31.179Z,4.90
2023-01-15T03:50:06.859Z,5.00
2023-01-15T03:52:49.514Z,5.00
2023-01-15T03:55:24.868Z,5.00
2023-01-15T03:58:08.799Z,5.00
2023-01-15T04:00:44.625Z,5.00
2023-01-15T04:03:17.448Z,5.00
2023-01-15T04:05:46.765Z,5.00
2023-01-15T04:08:22.856Z,5.00
2023-01-15T04:10:54.546Z,5.00
2023-01-15T04:13:25.316Z,5.00
2023-01-15T04:15:56.270Z,5.00
2023-01-15T04:18:28.872Z,5.00
2023-01-15T04:20:59.103Z,5.00
2023-01-15T04:23:28.104Z,5.00
2023-01-15T04:25:56.627Z,5.00
2023-01-15T04:28:27.415Z,5.00
2023-01-15T04:30:59.985Z,4.90
2023-01-15T04:33:30.056Z,5.00
2023-01-15T04:36:00.931Z,4.90
2023-01-15T04:38:29.866Z,4.90
2023-01-15T04:41:20.078Z,4.90
2023-01-15T04:44:06.301Z,4.80
2023-01-15T04:46:36.141Z,4.80
2023-01-15T04:49:05.910Z,4.80
2023-01-15T04:51:34.414Z,4.80
2023-01-15T04:54:04.287Z,4.70
2023-01-15T04:56:33.735Z,4.70
2023-01-15T04:59:03.953Z,4.70
2023-01-15T05:01:32.857Z,4.70
2023-01-15T05:04:02.322Z,4.60
2023-01-15T05:06:32.616Z,4.60
2023-01-15T05:09:02.187Z,4.60
2023-01-15T05:11:30.953Z,4.60
2023-01-15T05:13:59.502Z,4.60
2023-01-15T05:16:30.025Z,4.60
2023-01-15T05:19:02.261Z,4.50
2023-01-15T05:21:34.051Z,4.60
2023-01-15T05:24:06.605Z,4.60
2023-01-15T05:26:36.150Z,4.60
2023-01-15T05:29:05.782Z,4.60
2023-01-15T05:31:34.862Z,4.60
2023-01-15T05:34:03.486Z,4.60
2023-01-15T05:36:33.855Z,4.50
2023-01-15T05:39:02.844Z,4.50
2023-01-15T05:41:50.477Z,4.50
2023-01-15T05:44:21.134Z,4.50
2023-01-15T05:46:50.508Z,4.50
2023-01-15T05:49:21.486Z,4.50
2023-01-15T05:51:55.200Z,4.50
2023-01-15T05:54:26.146Z,4.50
2023-01-15T05:56:56.413Z,4.50
2023-01-15T05:59:27.051Z,4.50
2023-01-15T06:01:56.357Z,4.50
2023-01-15T06:04:25.519Z,4.50
2023-01-15T06:06:57.084Z,4.50
2023-01-15T06:09:28.471Z,4.50
2023-01-15T06:11:57.964Z,4.50
2023-01-15T06:14:26.819Z,4.50
2023-01-15T06:16:55.415Z,4.40
2023-01-15T06:19:24.098Z,4.50
2023-01-15T06:21:52.929Z,4.50
2023-01-15T06:24:23.265Z,4.40
2023-01-15T06:26:51.820Z,4.50
2023-01-15T06:29:22.560Z,4.50
2023-01-15T06:31:51.174Z,4.50
2023-01-15T06:34:19.770Z,4.50
2023-01-15T06:36:48.429Z,4.50
2023-01-15T06:39:17.904Z,4.50
2023-01-15T06:42:01.694Z,4.40
2023-01-15T06:44:47.575Z,4.50
2023-01-15T06:47:24.797Z,4.40
2023-01-15T06:49:56.208Z,4.50
2023-01-15T06:52:25.498Z,4.40
2023-01-15T06:54:54.204Z,4.40
2023-01-15T06:57:24.340Z,4.40
2023-01-15T06:59:53.244Z,4.40
2023-01-15T07:02:22.736Z,4.40
2023-01-15T07:04:52.202Z,4.40
2023-01-15T07:07:22.120Z,4.30
2023-01-15T07:09:51.443Z,4.30
2023-01-15T07:12:20.250Z,4.30
2023-01-15T07:14:50.302Z,4.30
2023-01-15T07:17:18.873Z,4.30
2023-01-15T07:19:48.353Z,4.30
2023-01-15T07:22:16.972Z,4.20
2023-01-15T07:24:45.560Z,4.20
2023-01-15T07:27:14.178Z,4.20
2023-01-15T07:29:42.858Z,4.20
2023-01-15T07:32:13.683Z,4.20
2023-01-15T07:34:42.465Z,4.20
2023-01-15T07:37:11.209Z,4.20
2023-01-15T07:39:39.857Z,4.20
2023-01-15T07:42:28.820Z,4.20
2023-01-15T07:45:14.738Z,4.20
2023-01-15T07:48:04.205Z,4.20
2023-01-15T07:50:32.884Z,4.20
2023-01-15T07:53:01.438Z,4.20
2023-01-15T07:55:30.271Z,4.20
2023-01-15T07:58:00.260Z,4.20
2023-01-15T08:00:28.965Z,4.20
2023-01-15T08:02:59.079Z,4.20
2023-01-15T08:05:27.783Z,4.30
2023-01-15T08:07:57.646Z,4.20
2023-01-15T08:10:26.580Z,4.20
2023-01-15T08:13:12.912Z,4.30
2023-01-15T08:15:44.212Z,4.30
2023-01-15T08:18:16.709Z,4.30
2023-01-15T08:20:47.843Z,4.30
2023-01-15T08:23:16.514Z,4.30
2023-01-15T08:25:45.227Z,4.20
2023-01-15T08:28:14.743Z,4.20
2023-01-15T08:30:43.434Z,4.20
2023-01-15T08:33:12.107Z,4.30
2023-01-15T08:35:42.330Z,4.20
2023-01-15T08:38:11.383Z,4.20
2023-01-15T08:40:58.834Z,4.20
2023-01-15T08:43:28.053Z,4.20
2023-01-15T08:45:59.279Z,4.20
2023-01-15T08:48:29.619Z,4.20
2023-01-15T08:50:59.826Z,4.20
2023-01-15T08:53:29.818Z,4.20
2023-01-15T08:55:58.556Z,4.20
2023-01-15T08:58:30.689Z,4.20
2023-01-15T09:01:06.555Z,4.10
2023-01-15T09:03:35.376Z,4.10
2023-01-15T09:06:06.776Z,4.10
2023-01-15T09:08:35.725Z,4.10
2023-01-15T09:11:06.608Z,4.10
2023-01-15T09:13:35.366Z,4.10
2023-01-15T09:16:05.464Z,4.10
2023-01-15T09:18:36.143Z,4.10
2023-01-15T09:21:07.187Z,4.10
2023-01-15T09:23:36.005Z,4.10
2023-01-15T09:26:06.893Z,4.10
2023-01-15T09:28:36.347Z,4.10
2023-01-15T09:31:05.379Z,4.10
2023-01-15T09:33:33.964Z,4.10
2023-01-15T09:36:02.598Z,4.00
2023-01-15T09:38:34.680Z,4.00
2023-01-15T09:41:32.432Z,4.00
2023-01-15T09:44:21.758Z,4.10
2023-01-15T09:47:03.133Z,4.10
2023-01-15T09:49:43.252Z,4.10
2023-01-15T09:52:19.917Z,4.00
2023-01-15T09:55:01.556Z,4.00
2023-01-15T09:57:31.008Z,4.00
2023-01-15T10:00:04.068Z,4.00
2023-01-15T10:02:46.040Z,4.00
2023-01-15T10:05:21.104Z,4.00
2023-01-15T10:07:59.210Z,4.00
2023-01-15T10:10:34.758Z,4.00
2023-01-15T10:13:11.327Z,3.90
2023-01-15T10:15:45.553Z,3.90
2023-01-15T10:18:17.516Z,3.90
2023-01-15T10:20:59.629Z,3.90
2023-01-15T10:23:40.519Z,3.90
2023-01-15T10:26:18.805Z,3.90
2023-01-15T10:29:00.193Z,3.80
2023-01-15T10:31:52.371Z,3.80
2023-01-15T10:34:49.033Z,3.80
2023-01-15T10:37:24.995Z,3.80
2023-01-15T10:40:06.972Z,3.80
2023-01-15T10:42:48.683Z,3.80
2023-01-15T10:45:21.643Z,3.80
2023-01-15T10:47:55.555Z,3.80
2023-01-15T10:50:26.113Z,3.70
2023-01-15T10:53:07.506Z,3.80
2023-01-15T10:55:40.248Z,3.70
2023-01-15T10:58:27.023Z,3.70
2023-01-15T11:01:04.638Z,3.70
2023-01-15T11:03:37.465Z,3.60
2023-01-15T11:06:08.399Z,3.60
2023-01-15T11:12:02.724Z,3.60
2023-01-15T11:14:55.786Z,3.60
2023-01-15T11:17:43.172Z,3.60
2023-01-15T11:20:22.731Z,3.60
2023-01-15T11:22:51.670Z,3.50
2023-01-15T11:25:29.320Z,3.50
2023-01-15T11:27:58.852Z,3.50
2023-01-15T11:30:33.068Z,3.50
2023-01-15T11:33:04.300Z,3.50
2023-01-15T11:35:35.105Z,3.50
2023-01-15T11:38:06.118Z,3.50
2023-01-15T11:40:35.208Z,3.50
2023-01-15T11:43:21.198Z,3.50
2023-01-15T11:46:11.181Z,3.50
2023-01-15T11:49:04.830Z,3.50
2023-01-15T11:51:41.564Z,3.40
2023-01-15T11:54:14.443Z,3.40
2023-01-15T11:56:45.541Z,3.40
2023-01-15T11:59:18.989Z,3.40
2023-01-15T12:01:59.483Z,3.40
2023-01-15T12:04:40.217Z,3.40
2023-01-15T12:07:15.132Z,3.40
2023-01-15T12:10:03.771Z,3.40
2023-01-15T12:12:45.112Z,3.40
2023-01-15T12:15:24.847Z,3.40
2023-01-15T12:18:07.016Z,3.30
2023-01-15T12:20:53.146Z,3.30
2023-01-15T12:23:45.435Z,3.30
2023-01-15T12:26:21.210Z,3.30
2023-01-15T12:28:59.455Z,3.20
2023-01-15T12:31:32.289Z,3.20
2023-01-15T12:34:09.708Z,3.20
2023-01-15T12:36:42.926Z,3.20
2023-01-15T12:39:18.640Z,3.20
2023-01-15T12:42:08.493Z,3.20
2023-01-15T12:44:56.654Z,3.20
2023-01-15T12:47:33.348Z,3.20
2023-01-15T12:50:10.751Z,3.20
2023-01-15T12:52:44.892Z,3.20
2023-01-15T12:55:17.569Z,3.20
2023-01-15T12:57:51.074Z,3.20
2023-01-15T13:00:24.140Z,3.20
2023-01-15T13:03:06.684Z,3.20
2023-01-15T13:05:42.438Z,3.20
2023-01-15T13:08:19.436Z,3.20
2023-01-15T13:10:51.228Z,3.20
2023-01-15T13:13:23.119Z,3.10
2023-01-15T13:16:09.339Z,3.10
2023-01-15T13:18:48.639Z,3.10
2023-01-15T13:21:20.494Z,3.10
2023-01-15T13:24:17.663Z,3.10
2023-01-15T13:26:59.735Z,3.10
2023-01-15T13:29:40.205Z,3.10
2023-01-15T13:32:15.710Z,3.10
2023-01-15T13:34:48.909Z,3.10
2023-01-15T13:37:27.371Z,3.10
2023-01-15T13:39:59.743Z,3.10
2023-01-15T13:42:37.896Z,3.10
2023-01-15T13:45:27.952Z,3.10
2023-01-15T13:48:00.871Z,3.10
2023-01-15T13:50:34.005Z,3.10
2023-01-15T13:53:09.035Z,3.10
2023-01-15T13:55:41.005Z,3.10
2023-01-15T13:58:23.780Z,3.10
2023-01-15T14:01:04.669Z,3.10
2023-01-15T14:03:35.879Z,3.10
2023-01-15T14:06:06.082Z,3.10
2023-01-15T14:08:44.016Z,3.10
2023-01-15T14:11:37.573Z,3.10
2023-01-15T14:14:30.199Z,3.10
2023-01-15T14:17:08.116Z,3.10
2023-01-15T14:20:15.259Z,3.10
2023-01-15T14:23:01.208Z,3.20
2023-01-15T14:25:42.244Z,3.20
2023-01-15T14:28:33.430Z,3.20
2023-01-15T14:31:21.718Z,3.20
2023-01-15T14:34:04.348Z,3.20
2023-01-15T14:36:39.019Z,3.20
2023-01-15T14:39:23.855Z,3.20
2023-01-15T14:42:20.144Z,3.20
2023-01-15T14:44:57.185Z,3.20
2023-01-15T14:47:30.870Z,3.20
2023-01-15T14:50:22.958Z,3.20
2023-01-15T14:52:53.326Z,3.20
2023-01-15T14:55:22.909Z,3.20
2023-01-15T14:58:00.164Z,3.20
2023-01-15T15:00:36.066Z,3.20
2023-01-15T15:03:12.728Z,3.20
2023-01-15T15:05:44.929Z,3.20
2023-01-15T15:08:17.232Z,3.20
2023-01-15T15:10:48.773Z,3.20
2023-01-15T15:13:30.059Z,3.20
2023-01-15T15:16:07.606Z,3.30
2023-01-15T15:18:42.385Z,3.20
2023-01-15T15:21:19.158Z,3.20
2023-01-15T15:23:57.274Z,3.20
2023-01-15T15:26:28.530Z,3.20
2023-01-15T15:28:59.823Z,3.20
2023-01-15T15:31:29.948Z,3.20
2023-01-15T15:34:00.005Z,3.30
2023-01-15T15:36:32.685Z,3.30
2023-01-15T15:39:04.388Z,3.30
2023-01-15T15:41:54.179Z,3.20
2023-01-15T15:44:54.362Z,3.30
2023-01-15T15:47:43.901Z,3.30
2023-01-15T15:50:22.418Z,3.30
2023-01-15T15:52:51.892Z,3.30
2023-01-15T15:55:22.747Z,3.30
2023-01-15T15:58:03.408Z,3.30
2023-01-15T16:00:35.560Z,3.30
2023-01-15T16:03:09.192Z,3.30
2023-01-15T16:05:37.927Z,3.40
2023-01-15T16:08:16.704Z,3.40
2023-01-15T16:10:46.420Z,3.40
2023-01-15T16:13:18.351Z,3.40
2023-01-15T16:15:50.935Z,3.50
2023-01-15T16:18:23.922Z,3.50
2023-01-15T16:20:52.870Z,3.50
2023-01-15T16:23:24.786Z,3.50
2023-01-15T16:26:04.455Z,3.50
2023-01-15T16:28:39.007Z,3.50
2023-01-15T16:31:09.201Z,3.50
2023-01-15T16:33:38.779Z,3.50
2023-01-15T16:36:08.934Z,3.50
2023-01-15T16:38:40.486Z,3.60
2023-01-15T16:41:19.703Z,3.60
2023-01-15T16:43:54.861Z,3.60
2023-01-15T16:46:27.467Z,3.60
2023-01-15T16:49:20.400Z,3.60
2023-01-15T16:51:49.350Z,3.60
2023-01-15T16:54:44.384Z,3.70
2023-01-15T16:57:30.081Z,3.70
2023-01-15T17:00:02.267Z,3.60
2023-01-15T17:02:45.839Z,3.70
2023-01-15T17:05:24.833Z,3.70
2023-01-15T17:07:55.674Z,3.70
2023-01-15T17:10:27.528Z,3.70
2023-01-15T17:12:57.580Z,3.70
2023-01-15T17:15:40.365Z,3.70
2023-01-15T17:18:28.000Z,3.70
2023-01-15T17:20:57.148Z,3.80
2023-01-15T17:23:29.839Z,3.80
2023-01-15T17:25:59.517Z,3.80
2023-01-15T17:28:28.024Z,3.80
2023-01-15T17:31:01.611Z,3.80
2023-01-15T17:33:31.669Z,3.80
2023-01-15T17:36:01.496Z,3.80
2023-01-15T17:38:30.291Z,3.80
2023-01-15T17:41:01.795Z,3.90
2023-01-15T17:43:30.464Z,3.90
2023-01-15T17:46:00.225Z,3.90
2023-01-15T17:48:30.486Z,3.90
2023-01-15T17:51:01.519Z,3.90
2023-01-15T17:53:32.518Z,3.90
2023-01-15T17:56:18.640Z,3.90
2023-01-15T17:59:05.130Z,4.00
2023-01-15T18:01:55.613Z,4.00
2023-01-15T18:04:47.045Z,4.00
2023-01-15T18:07:16.620Z,4.00
2023-01-15T18:09:45.768Z,4.00
2023-01-15T18:12:14.868Z,4.10
2023-01-15T18:14:43.622Z,4.00
2023-01-15T18:17:12.494Z,4.10
2023-01-15T18:19:43.619Z,4.10
2023-01-15T18:22:13.841Z,4.10
2023-01-15T18:24:42.408Z,4.10
2023-01-15T18:27:11.099Z,4.10
2023-01-15T18:29:41.813Z,4.10
2023-01-15T18:32:10.765Z,4.10
2023-01-15T18:34:39.655Z,4.10
2023-01-15T18:37:09.917Z,4.10
2023-01-15T18:39:38.602Z,4.20
2023-01-15T18:42:24.830Z,4.20
2023-01-15T18:45:11.426Z,4.20
2023-01-15T18:47:41.377Z,4.20
2023-01-15T18:50:11.646Z,4.20
2023-01-15T18:52:51.374Z,4.20
2023-01-15T18:55:20.496Z,4.20
2023-01-15T18:57:49.284Z,4.20
2023-01-15T19:00:18.633Z,4.10
2023-01-15T19:02:47.437Z,4.10
2023-01-15T19:05:17.308Z,4.10
2023-01-15T19:07:47.538Z,4.10
2023-01-15T19:10:18.681Z,4.10
2023-01-15T19:12:47.568Z,4.10
2023-01-15T19:15:35.741Z,4.10
2023-01-15T19:18:23.276Z,4.20
2023-01-15T19:20:52.110Z,4.20
2023-01-15T19:23:23.221Z,4.20
2023-01-15T19:25:51.868Z,4.20
2023-01-15T19:28:22.270Z,4.20
2023-01-15T19:31:12.895Z,4.20
2023-01-15T19:33:41.545Z,4.20
2023-01-15T19:36:10.746Z,4.20
2023-01-15T19:38:41.394Z,4.20
2023-01-15T19:41:30.689Z,4.20
2023-01-15T19:44:16.901Z,4.20
2023-01-15T19:47:03.696Z,4.30
2023-01-15T19:49:53.884Z,4.30
2023-01-15T19:52:38.095Z,4.20
2023-01-15T19:55:10.896Z,4.30
2023-01-15T19:57:39.828Z,4.20
2023-01-15T20:00:11.623Z,4.20
2023-01-15T20:02:40.447Z,4.20
2023-01-15T20:05:09.596Z,4.20
2023-01-15T20:07:38.183Z,4.20
2023-01-15T20:10:11.547Z,4.20
2023-01-15T20:12:57.510Z,4.30
2023-01-15T20:15:27.091Z,4.30
2023-01-15T20:17:56.163Z,4.20
2023-01-15T20:20:24.971Z,4.30
2023-01-15T20:22:56.145Z,4.30
2023-01-15T20:25:27.344Z,4.20
2023-01-15T20:27:57.229Z,4.30
2023-01-15T20:30:26.671Z,4.30
2023-01-15T20:32:57.226Z,4.30
2023-01-15T20:35:27.455Z,4.30
2023-01-15T20:37:58.275Z,4.30
2023-01-15T20:40:29.092Z,4.20
2023-01-15T20:43:15.376Z,4.20
2023-01-15T20:45:44.080Z,4.20
2023-01-15T20:48:31.179Z,4.20
2023-01-15T20:51:03.323Z,4.20
2023-01-15T20:53:34.789Z,4.20
2023-01-15T20:56:12.523Z,4.20
2023-01-15T20:58:41.837Z,4.20
2023-01-15T21:01:11.306Z,4.20
2023-01-15T21:03:40.404Z,4.10
2023-01-15T21:06:10.216Z,4.20
2023-01-15T21:08:42.487Z,4.10
2023-01-15T21:11:13.061Z,4.20
2023-01-15T21:13:44.994Z,4.20
2023-01-15T21:16:15.892Z,4.10
2023-01-15T21:18:48.047Z,4.20
2023-01-15T21:21:20.786Z,4.10
2023-01-15T21:23:49.476Z,4.20
2023-01-15T21:26:19.495Z,4.10
2023-01-15T21:28:48.122Z,4.10
2023-01-15T21:31:17.114Z,4.10
2023-01-15T21:33:45.719Z,4.10
2023-01-15T21:36:15.906Z,4.10
2023-01-15T21:38:44.695Z,4.10
2023-01-15T21:41:14.915Z,4.10
2023-01-15T21:44:02.924Z,4.10
2023-01-15T21:46:31.734Z,4.10
2023-01-15T21:49:01.395Z,4.10
2023-01-15T21:51:31.081Z,4.10
2023-01-15T21:54:00.429Z,4.10
2023-01-15T21:56:29.563Z,4.10
2023-01-15T21:59:00.032Z,4.10
2023-01-15T22:01:29.411Z,4.10
2023-01-15T22:03:58.063Z,4.10
2023-01-15T22:06:26.715Z,4.10
2023-01-15T22:08:55.709Z,4.10
2023-01-15T22:11:25.244Z,4.00
2023-01-15T22:13:54.322Z,4.00
2023-01-15T22:16:24.526Z,4.00
2023-01-15T22:18:53.417Z,4.00
2023-01-15T22:21:21.942Z,4.00
2023-01-15T22:23:51.056Z,4.00
2023-01-15T22:26:21.163Z,4.00
2023-01-15T22:28:51.713Z,4.00
2023-01-15T22:31:20.553Z,4.00
2023-01-15T22:33:50.873Z,4.00
2023-01-15T22:36:20.015Z,4.00
2023-01-15T22:38:48.725Z,4.00
2023-01-15T22:41:37.276Z,4.00
2023-01-15T22:44:07.622Z,4.00
2023-01-15T22:46:36.997Z,4.00
2023-01-15T22:49:07.010Z,3.90
2023-01-15T22:51:35.591Z,3.90
2023-01-15T22:54:04.862Z,3.90
2023-01-15T22:56:33.456Z,3.90
2023-01-15T22:59:02.198Z,3.90
2023-01-15T23:01:30.921Z,3.90
2023-01-15T23:04:01.663Z,3.80
2023-01-15T23:06:31.692Z,3.90
2023-01-15T23:09:01.645Z,3.80
2023-01-15T23:11:31.660Z,3.80
2023-01-15T23:14:00.979Z,3.80
2023-01-15T23:16:29.652Z,3.80
2023-01-15T23:18:58.726Z,3.80
2023-01-15T23:21:28.004Z,3.80
2023-01-15T23:23:59.811Z,3.80
2023-01-15T23:26:31.082Z,3.80
2023-01-15T23:29:00.222Z,3.80
2023-01-15T23:31:29.512Z,3.80
2023-01-15T23:34:01.570Z,3.80
2023-01-15T23:36:30.164Z,3.80
2023-01-15T23:39:00.241Z,3.80
2023-01-15T23:41:46.099Z,3.70
2023-01-15T23:44:34.494Z,3.70
2023-01-15T23:47:03.097Z,3.70
2023-01-15T23:49:33.048Z,3.70
2023-01-15T23:52:02.298Z,3.70
2023-01-15T23:54:32.827Z,3.70
2023-01-15T23:57:02.676Z,3.70
2023-01-15T23:59:31.349Z,3.80
